createdAt,value
2022-09-28T00:01:02.112Z,989.07
2022-09-28T00:04:10.043Z,989.05
2022-09-28T00:07:17.703Z,989.06
2022-09-28T00:10:24.963Z,988.98
2022-09-28T00:13:33.002Z,988.96
2022-09-28T00:16:40.619Z,988.95
2022-09-28T00:19:48.168Z,988.94
2022-09-28T00:22:56.213Z,988.84
2022-09-28T00:26:03.417Z,988.79
2022-09-28T00:29:11.202Z,988.76
2022-09-28T00:32:18.681Z,988.76
2022-09-28T00:35:25.829Z,988.68
2022-09-28T00:38:33.639Z,988.54
2022-09-28T00:41:41.238Z,988.56
2022-09-28T00:44:48.467Z,988.60
2022-09-28T00:47:56.411Z,988.58
2022-09-28T00:51:03.593Z,988.51
2022-09-28T00:54:12.821Z,988.54
2022-09-28T00:57:21.213Z,988.49
2022-09-28T01:00:28.586Z,988.51
2022-09-28T01:03:36.784Z,988.41
2022-09-28T01:06:43.926Z,988.43
2022-09-28T01:09:52.098Z,988.41
2022-09-28T01:12:59.736Z,988.34
2022-09-28T01:16:07.394Z,988.26
2022-09-28T01:19:15.076Z,988.25
2022-09-28T01:22:23.366Z,988.30
2022-09-28T01:25:30.648Z,988.21
2022-09-28T01:28:38.648Z,988.12
2022-09-28T01:31:46.687Z,988.07
2022-09-28T01:34:53.909Z,988.02
2022-09-28T01:38:01.542Z,987.95
2022-09-28T01:41:09.041Z,987.89
2022-09-28T01:44:16.672Z,987.86
2022-09-28T01:47:24.579Z,987.94
2022-09-28T01:50:32.062Z,987.92
2022-09-28T01:53:39.553Z,987.90
2022-09-28T01:56:47.484Z,987.80
2022-09-28T01:59:54.933Z,987.78
2022-09-28T02:03:02.674Z,987.81
2022-09-28T02:06:10.335Z,987.78
2022-09-28T02:09:18.214Z,987.71
2022-09-28T02:12:25.406Z,987.68
2022-09-28T02:15:33.075Z,987.72
2022-09-28T02:18:41.148Z,987.76
2022-09-28T02:21:48.767Z,987.64
2022-09-28T02:24:56.268Z,987.56
2022-09-28T02:28:03.839Z,987.53
2022-09-28T02:31:11.361Z,987.50
2022-09-28T02:34:19.390Z,987.53
2022-09-28T02:37:27.320Z,987.56
2022-09-28T02:40:34.511Z,987.55
2022-09-28T02:43:42.471Z,987.60
2022-09-28T02:46:50.312Z,987.60
2022-09-28T02:49:57.943Z,987.53
2022-09-28T02:53:05.844Z,987.45
2022-09-28T02:56:13.204Z,987.42
2022-09-28T02:59:21.314Z,987.37
2022-09-28T03:02:29.399Z,987.34
2022-09-28T03:05:36.594Z,987.39
2022-09-28T03:08:44.465Z,987.34
2022-09-28T03:11:51.907Z,987.34
2022-09-28T03:14:59.418Z,987.35
2022-09-28T03:18:07.458Z,987.30
2022-09-28T03:21:15.017Z,987.31
2022-09-28T03:24:22.571Z,987.33
2022-09-28T03:27:30.409Z,987.30
2022-09-28T03:30:37.622Z,987.29
2022-09-28T03:33:45.448Z,987.27
2022-09-28T03:36:52.957Z,987.20
2022-09-28T03:40:00.571Z,987.16
2022-09-28T03:43:08.569Z,987.15
2022-09-28T03:46:16.266Z,987.14
2022-09-28T03:49:23.824Z,987.16
2022-09-28T03:52:31.823Z,987.11
2022-09-28T03:55:39.824Z,987.15
2022-09-28T03:58:47.574Z,987.07
2022-09-28T04:01:55.700Z,987.03
2022-09-28T04:05:02.917Z,986.99
2022-09-28T04:08:10.734Z,986.97
2022-09-28T04:11:18.457Z,986.97
2022-09-28T04:14:26.105Z,986.95
2022-09-28T04:17:39.211Z,986.89
2022-09-28T04:20:36.799Z,986.78
2022-09-28T04:23:44.489Z,986.84
2022-09-28T04:26:52.129Z,986.82
2022-09-28T04:30:00.145Z,986.80
2022-09-28T04:33:07.845Z,986.82
2022-09-28T04:36:15.453Z,986.80
2022-09-28T04:39:23.443Z,986.74
2022-09-28T04:42:30.962Z,986.71
2022-09-28T04:45:38.504Z,986.79
2022-09-28T04:48:46.181Z,986.80
2022-09-28T04:51:53.370Z,986.75
2022-09-28T04:55:01.342Z,986.76
2022-09-28T04:58:09.216Z,986.74
2022-09-28T05:01:16.438Z,986.77
2022-09-28T05:04:26.170Z,986.72
2022-09-28T05:07:34.464Z,986.78
2022-09-28T05:10:41.669Z,986.72
2022-09-28T05:13:49.602Z,986.72
2022-09-28T05:16:57.211Z,986.73
2022-09-28T05:20:04.902Z,986.72
2022-09-28T05:23:12.939Z,986.73
2022-09-28T05:26:20.551Z,986.73
2022-09-28T05:29:32.055Z,986.74
2022-09-28T05:32:29.872Z,986.74
2022-09-28T05:35:37.824Z,986.72
2022-09-28T05:38:45.712Z,986.76
2022-09-28T05:41:53.553Z,986.70
2022-09-28T05:45:01.803Z,986.71
2022-09-28T05:48:09.724Z,986.69
2022-09-28T05:51:17.655Z,986.73
2022-09-28T05:54:25.485Z,986.71
2022-09-28T05:57:33.374Z,986.72
2022-09-28T06:00:41.256Z,986.68
2022-09-28T06:03:49.066Z,986.68
2022-09-28T06:06:56.967Z,986.68
2022-09-28T06:10:04.668Z,986.66
2022-09-28T06:13:13.477Z,986.66
2022-09-28T06:16:20.951Z,986.70
2022-09-28T06:19:29.225Z,986.70
2022-09-28T06:22:37.271Z,986.67
2022-09-28T06:25:44.741Z,986.76
2022-09-28T06:28:53.013Z,986.74
2022-09-28T06:32:00.920Z,986.75
2022-09-28T06:35:08.314Z,986.75
2022-09-28T06:38:16.301Z,986.78
2022-09-28T06:41:24.175Z,986.75
2022-09-28T06:44:31.755Z,986.83
2022-09-28T06:47:40.029Z,986.78
2022-09-28T06:50:47.445Z,986.83
2022-09-28T06:53:55.626Z,986.83
2022-09-28T06:57:03.877Z,986.79
2022-09-28T07:00:11.295Z,986.77
2022-09-28T07:03:19.568Z,986.77
2022-09-28T07:06:27.929Z,986.84
2022-09-28T07:09:41.427Z,986.79
2022-09-28T07:12:40.469Z,986.77
2022-09-28T07:15:48.568Z,986.80
2022-09-28T07:18:56.071Z,986.87
2022-09-28T07:22:05.643Z,986.90
2022-09-28T07:25:13.632Z,986.90
2022-09-28T07:28:21.526Z,986.92
2022-09-28T07:31:29.525Z,986.93
2022-09-28T07:34:37.244Z,987.00
2022-09-28T07:37:44.791Z,987.00
2022-09-28T07:40:52.500Z,986.97
2022-09-28T07:44:00.616Z,987.02
2022-09-28T07:47:08.339Z,987.02
2022-09-28T07:50:15.856Z,987.05
2022-09-28T07:53:23.727Z,987.08
2022-09-28T07:56:31.567Z,987.02
2022-09-28T07:59:39.150Z,987.06
2022-09-28T08:02:46.750Z,987.10
2022-09-28T08:05:54.439Z,987.16
2022-09-28T08:09:01.920Z,987.09
2022-09-28T08:12:09.495Z,987.12
2022-09-28T08:15:17.022Z,987.09
2022-09-28T08:18:25.031Z,987.21
2022-09-28T08:21:32.541Z,987.22
2022-09-28T08:24:40.124Z,987.21
2022-09-28T08:27:47.957Z,987.18
2022-09-28T08:30:55.275Z,987.26
2022-09-28T08:34:03.196Z,987.26
2022-09-28T08:37:10.715Z,987.26
2022-09-28T08:40:17.944Z,987.40
2022-09-28T08:43:25.888Z,987.38
2022-09-28T08:46:33.660Z,987.46
2022-09-28T08:49:41.304Z,987.45
2022-09-28T08:52:49.301Z,987.47
2022-09-28T08:55:56.628Z,987.48
2022-09-28T08:59:04.743Z,987.47
2022-09-28T09:02:12.701Z,987.48
2022-09-28T09:05:19.930Z,987.53
2022-09-28T09:08:27.934Z,987.49
2022-09-28T09:11:35.636Z,987.51
2022-09-28T09:14:43.335Z,987.52
2022-09-28T09:17:51.086Z,987.53
2022-09-28T09:20:58.606Z,987.60
2022-09-28T09:24:06.169Z,987.55
2022-09-28T09:27:14.028Z,987.54
2022-09-28T09:30:21.782Z,987.57
2022-09-28T09:33:29.397Z,987.64
2022-09-28T09:36:37.440Z,987.68
2022-09-28T09:39:45.041Z,987.76
2022-09-28T09:42:52.601Z,987.71
2022-09-28T09:46:00.381Z,987.73
2022-09-28T09:49:08.489Z,987.81
2022-09-28T09:52:16.043Z,987.79
2022-09-28T09:55:29.007Z,987.82
2022-09-28T09:58:26.804Z,987.80
2022-09-28T10:01:34.126Z,987.89
2022-09-28T10:04:42.076Z,987.86
2022-09-28T10:07:49.567Z,987.89
2022-09-28T10:10:57.024Z,987.89
2022-09-28T10:14:04.786Z,987.89
2022-09-28T10:17:12.489Z,987.91
2022-09-28T10:20:20.116Z,987.96
2022-09-28T10:23:28.162Z,987.91
2022-09-28T10:26:35.781Z,987.89
2022-09-28T10:29:43.560Z,988.04
2022-09-28T10:32:51.912Z,988.01
2022-09-28T10:35:59.423Z,988.00
2022-09-28T10:39:07.704Z,988.04
2022-09-28T10:42:15.696Z,988.02
2022-09-28T10:45:23.698Z,988.04
2022-09-28T10:48:32.162Z,988.08
2022-09-28T10:51:39.497Z,988.08
2022-09-28T10:54:47.677Z,988.09
2022-09-28T10:57:55.889Z,988.13
2022-09-28T11:01:03.442Z,988.18
2022-09-28T11:04:11.935Z,988.14
2022-09-28T11:07:20.187Z,988.16
2022-09-28T11:10:27.567Z,988.29
2022-09-28T11:13:35.733Z,988.24
2022-09-28T11:16:43.375Z,988.32
2022-09-28T11:19:50.933Z,988.30
2022-09-28T11:22:59.032Z,988.36
2022-09-28T11:26:06.558Z,988.23
2022-09-28T11:29:14.093Z,988.27
2022-09-28T11:32:22.096Z,988.23
2022-09-28T11:35:29.331Z,988.30
2022-09-28T11:38:37.269Z,988.25
2022-09-28T11:41:45.228Z,988.27
2022-09-28T11:44:53.118Z,988.26
2022-09-28T11:48:01.529Z,988.29
2022-09-28T11:51:09.242Z,988.32
2022-09-28T11:54:17.099Z,988.30
2022-09-28T11:57:24.953Z,988.21
2022-09-28T12:00:32.932Z,988.29
2022-09-28T12:03:41.117Z,988.31
2022-09-28T12:06:48.964Z,988.35
2022-09-28T12:09:56.954Z,988.35
2022-09-28T12:13:04.760Z,988.35
2022-09-28T12:16:53.495Z,988.34
2022-09-28T12:19:17.719Z,988.33
2022-09-28T12:22:25.789Z,988.37
2022-09-28T12:25:33.466Z,988.39
2022-09-28T12:28:41.937Z,988.35
2022-09-28T12:31:49.408Z,988.24
2022-09-28T12:34:57.533Z,988.25
2022-09-28T12:38:05.302Z,988.23
2022-09-28T12:41:12.824Z,988.25
2022-09-28T12:44:21.215Z,988.32
2022-09-28T12:47:28.674Z,988.40
2022-09-28T12:50:39.072Z,988.41
2022-09-28T12:53:38.137Z,988.40
2022-09-28T12:56:45.697Z,988.50
2022-09-28T12:59:53.897Z,988.54
2022-09-28T13:03:02.255Z,988.53
2022-09-28T13:06:09.790Z,988.67
2022-09-28T13:09:18.228Z,988.71
2022-09-28T13:12:26.008Z,988.68
2022-09-28T13:15:33.951Z,988.66
2022-09-28T13:18:42.160Z,988.69
2022-09-28T13:21:49.746Z,988.65
2022-09-28T13:24:57.310Z,988.71
2022-09-28T13:28:05.457Z,988.74
2022-09-28T13:31:12.708Z,988.65
2022-09-28T13:34:20.815Z,988.68
2022-09-28T13:37:28.437Z,988.65
2022-09-28T13:40:36.135Z,988.66
2022-09-28T13:43:43.748Z,988.67
2022-09-28T13:46:51.438Z,988.70
2022-09-28T13:49:59.206Z,988.74
2022-09-28T13:53:06.820Z,988.77
2022-09-28T13:56:14.311Z,988.74
2022-09-28T13:59:21.752Z,988.82
2022-09-28T14:02:29.551Z,988.81
2022-09-28T14:05:37.943Z,988.84
2022-09-28T14:08:45.824Z,988.85
2022-09-28T14:11:53.555Z,988.90
2022-09-28T14:15:01.842Z,988.97
2022-09-28T14:18:09.296Z,988.93
2022-09-28T14:21:17.698Z,988.98
2022-09-28T14:24:26.127Z,988.99
2022-09-28T14:27:33.546Z,989.02
2022-09-28T14:30:41.981Z,989.10
2022-09-28T14:33:50.111Z,989.08
2022-09-28T14:36:57.494Z,989.12
2022-09-28T14:40:05.646Z,989.04
2022-09-28T14:43:13.484Z,989.05
2022-09-28T14:44:07.904Z,989.08
2022-09-28T14:47:15.172Z,989.07
2022-09-28T14:50:23.533Z,989.11
2022-09-28T14:53:31.736Z,989.18
2022-09-28T14:56:39.343Z,989.15
2022-09-28T14:59:47.568Z,989.19
2022-09-28T15:02:55.155Z,989.33
2022-09-28T15:06:02.973Z,989.26
2022-09-28T15:09:10.609Z,989.30
2022-09-28T15:12:18.478Z,989.32
2022-09-28T15:15:25.908Z,989.24
2022-09-28T15:18:34.523Z,989.34
2022-09-28T15:21:42.400Z,989.36
2022-09-28T15:24:50.362Z,989.37
2022-09-28T15:27:57.901Z,989.40
2022-09-28T15:31:06.347Z,989.41
2022-09-28T15:34:14.380Z,989.37
2022-09-28T15:37:22.345Z,989.44
2022-09-28T15:40:30.773Z,989.41
2022-09-28T15:43:38.213Z,989.41
2022-09-28T15:46:46.356Z,989.45
2022-09-28T15:49:54.356Z,989.48
2022-09-28T15:53:01.817Z,989.49
2022-09-28T15:56:10.242Z,989.60
2022-09-28T15:59:18.278Z,989.58
2022-09-28T16:02:25.911Z,989.68
2022-09-28T16:05:34.139Z,989.68
2022-09-28T16:08:41.433Z,989.73
2022-09-28T16:11:49.792Z,989.81
2022-09-28T16:14:57.703Z,989.83
2022-09-28T16:18:04.870Z,989.79
2022-09-28T16:21:12.873Z,989.90
2022-09-28T16:24:20.571Z,989.91
2022-09-28T16:27:28.066Z,989.93
2022-09-28T16:30:36.575Z,990.01
2022-09-28T16:33:44.426Z,990.00
2022-09-28T16:36:52.150Z,990.01
2022-09-28T16:40:00.340Z,990.09
2022-09-28T16:43:07.733Z,990.07
2022-09-28T16:46:15.406Z,990.12
2022-09-28T16:49:23.000Z,990.19
2022-09-28T16:52:30.280Z,990.17
2022-09-28T16:55:40.829Z,990.23
2022-09-28T16:58:37.852Z,990.17
2022-09-28T17:01:46.142Z,990.21
2022-09-28T17:04:54.002Z,990.23
2022-09-28T17:08:01.284Z,990.25
2022-09-28T17:11:15.902Z,990.24
2022-09-28T17:14:14.644Z,990.35
2022-09-28T17:17:22.476Z,990.39
2022-09-28T17:20:30.616Z,990.38
2022-09-28T17:23:38.459Z,990.42
2022-09-28T17:26:46.209Z,990.38
2022-09-28T17:29:54.480Z,990.44
2022-09-28T17:33:01.738Z,990.51
2022-09-28T17:36:09.387Z,990.47
2022-09-28T17:39:16.556Z,990.49
2022-09-28T17:42:25.680Z,990.58
2022-09-28T17:45:33.364Z,990.59
2022-09-28T17:48:41.548Z,990.65
2022-09-28T17:51:49.501Z,990.61
2022-09-28T17:54:57.744Z,990.58
2022-09-28T17:58:04.983Z,990.68
2022-09-28T18:01:13.873Z,990.72
2022-09-28T18:04:33.189Z,990.71
2022-09-28T18:07:18.795Z,990.75
2022-09-28T18:10:26.844Z,990.75
2022-09-28T18:13:34.567Z,990.79
2022-09-28T18:16:42.258Z,990.86
2022-09-28T18:19:50.356Z,990.85
2022-09-28T18:22:58.139Z,990.86
2022-09-28T18:26:06.027Z,990.94
2022-09-28T18:29:13.360Z,990.93
2022-09-28T18:32:21.681Z,990.96
2022-09-28T18:35:29.181Z,990.91
2022-09-28T18:38:36.871Z,990.97
2022-09-28T18:41:44.582Z,990.98
2022-09-28T18:44:52.576Z,991.01
2022-09-28T18:48:00.213Z,991.11
2022-09-28T18:51:07.813Z,991.10
2022-09-28T18:54:15.215Z,991.09
2022-09-28T18:57:23.136Z,991.16
2022-09-28T19:00:30.605Z,991.17
2022-09-28T19:03:38.254Z,991.24
2022-09-28T19:06:46.288Z,991.18
2022-09-28T19:09:53.969Z,991.16
2022-09-28T19:13:01.663Z,991.25
2022-09-28T19:16:09.850Z,991.22
2022-09-28T19:19:17.190Z,991.28
2022-09-28T19:22:25.520Z,991.27
2022-09-28T19:25:33.661Z,991.27
2022-09-28T19:28:40.882Z,991.26
2022-09-28T19:31:49.022Z,991.29
2022-09-28T19:34:57.223Z,991.26
2022-09-28T19:38:05.055Z,991.30
2022-09-28T19:41:13.358Z,991.30
2022-09-28T19:44:21.496Z,991.32
2022-09-28T19:47:29.015Z,991.34
2022-09-28T19:50:37.426Z,991.31
2022-09-28T19:53:44.587Z,991.34
2022-09-28T19:56:52.627Z,991.42
2022-09-28T20:00:02.717Z,991.42
2022-09-28T20:03:10.550Z,991.48
2022-09-28T20:06:18.424Z,991.51
2022-09-28T20:09:25.990Z,991.46
2022-09-28T20:12:33.650Z,991.46
2022-09-28T20:15:41.662Z,991.50
2022-09-28T20:18:49.232Z,991.54
2022-09-28T20:21:57.084Z,991.55
2022-09-28T20:25:05.214Z,991.50
2022-09-28T20:28:12.894Z,991.58
2022-09-28T20:31:20.873Z,991.59
2022-09-28T20:34:28.678Z,991.67
2022-09-28T20:37:36.836Z,991.64
2022-09-28T20:40:44.781Z,991.66
2022-09-28T20:43:52.597Z,991.73
2022-09-28T20:47:00.778Z,991.76
2022-09-28T20:50:08.569Z,991.66
2022-09-28T20:53:16.279Z,991.79
2022-09-28T20:56:24.200Z,991.79
2022-09-28T20:59:32.031Z,991.78
2022-09-28T21:02:39.747Z,991.86
2022-09-28T21:05:48.089Z,991.83
2022-09-28T21:08:55.435Z,991.84
2022-09-28T21:12:03.674Z,991.84
2022-09-28T21:15:12.022Z,991.94
2022-09-28T21:18:19.527Z,991.94
2022-09-28T21:21:27.815Z,991.94
2022-09-28T21:24:36.015Z,991.98
2022-09-28T21:27:43.394Z,992.04
2022-09-28T21:30:51.644Z,992.03
2022-09-28T21:33:59.248Z,992.00
2022-09-28T21:37:06.389Z,992.02
2022-09-28T21:40:14.128Z,991.97
2022-09-28T21:43:21.609Z,991.92
2022-09-28T21:46:29.240Z,992.03
2022-09-28T21:49:37.409Z,992.00
2022-09-28T21:52:44.571Z,992.02
2022-09-28T21:55:52.441Z,992.02
2022-09-28T21:59:00.213Z,992.04
2022-09-28T22:02:07.363Z,992.08
2022-09-28T22:05:15.333Z,992.07
2022-09-28T22:08:22.980Z,992.07
2022-09-28T22:11:30.505Z,992.13
2022-09-28T22:14:38.344Z,992.08
2022-09-28T22:17:45.936Z,992.06
2022-09-28T22:20:53.675Z,992.18
2022-09-28T22:24:01.419Z,992.15
2022-09-28T22:27:09.157Z,992.21
2022-09-28T22:30:16.688Z,992.21
2022-09-28T22:33:23.797Z,992.17
2022-09-28T22:36:31.527Z,992.19
2022-09-28T22:39:39.110Z,992.23
2022-09-28T22:42:46.361Z,992.23
2022-09-28T22:45:57.554Z,992.27
2022-09-28T22:48:56.125Z,992.30
2022-09-28T22:52:03.369Z,992.27
2022-09-28T22:55:11.243Z,992.31
2022-09-28T22:58:18.464Z,992.37
2022-09-28T23:01:26.277Z,992.31
2022-09-28T23:04:34.096Z,992.31
2022-09-28T23:07:41.187Z,992.30
2022-09-28T23:10:48.937Z,992.36
2022-09-28T23:13:57.067Z,992.33
2022-09-28T23:17:04.296Z,992.30
2022-09-28T23:20:12.531Z,992.35
2022-09-28T23:23:19.699Z,992.38
2022-09-28T23:26:27.830Z,992.43
2022-09-28T23:29:36.041Z,992.29
2022-09-28T23:32:43.241Z,992.39
2022-09-28T23:35:51.081Z,992.31
2022-09-28T23:38:59.177Z,992.38
2022-09-28T23:42:06.322Z,992.42
2022-09-28T23:45:14.154Z,992.37
2022-09-28T23:48:22.045Z,992.40
2022-09-28T23:51:29.195Z,992.43
2022-09-28T23:54:37.135Z,992.38
2022-09-28T23:57:44.547Z,992.46
